Аэропорт
Полярный (UERP)

 UERP / PYJ
ЗЦ Хабаровск
Якутск (UEEE)
Якутск (UEEE)
 66.40040, 112.03000  / 1660 ft

 UERP 201700Z 17003MPS CAVOK M17/M19 Q1003 R35/890138 NOSIG RMK QFE708
 TAF UERP 201400Z 2015/2115 17004MPS 9999 SCT020 OVC100 TEMPO 2015/2018 4000 -SN SCT007 BKN015 OVC100
UERP_j_0220
показать схемы
Название сценария Тип сценария Flight Simulator 9 Flight Simulator X Prepar3D v2 Prepar3D v3 Prepar3D v4 xPlane
UERP FS9 бесплатный
UERP_P3D_v.4.4 бесплатный


2020 © VATRUS division (Privacy Policy)